createdAt,value
2022-08-17T00:01:51.768Z,95.59
2022-08-17T00:04:20.034Z,95.67
2022-08-17T00:06:54.191Z,95.78
2022-08-17T00:09:26.771Z,95.48
2022-08-17T00:12:40.631Z,95.67
2022-08-17T00:14:35.239Z,95.90
2022-08-17T00:17:08.364Z,96.46
2022-08-17T00:19:41.183Z,97.09
2022-08-17T00:22:32.472Z,97.16
2022-08-17T00:24:47.804Z,97.31
2022-08-17T00:27:20.695Z,98.06
2022-08-17T00:29:53.509Z,98.33
2022-08-17T00:33:15.478Z,99.05
2022-08-17T00:35:01.212Z,99.79
2022-08-17T00:37:34.351Z,100.00
2022-08-17T00:40:09.850Z,100.00
2022-08-17T00:42:43.478Z,100.00
2022-08-17T00:45:18.003Z,100.00
2022-08-17T00:47:52.577Z,100.00
2022-08-17T00:50:26.238Z,100.00
2022-08-17T00:52:59.381Z,100.00
2022-08-17T00:55:32.931Z,100.00
2022-08-17T00:58:06.418Z,100.00
2022-08-17T01:00:42.543Z,100.00
2022-08-17T01:03:21.213Z,100.00
2022-08-17T01:05:57.089Z,100.00
2022-08-17T01:08:32.116Z,100.00
2022-08-17T01:11:05.426Z,100.00
2022-08-17T01:13:41.988Z,100.00
2022-08-17T01:16:25.904Z,100.00
2022-08-17T01:19:02.422Z,100.00
2022-08-17T01:21:46.897Z,100.00
2022-08-17T01:24:19.727Z,100.00
2022-08-17T01:26:52.105Z,100.00
2022-08-17T01:29:24.845Z,100.00
2022-08-17T01:32:00.911Z,100.00
2022-08-17T01:34:39.880Z,100.00
2022-08-17T01:37:07.368Z,100.00
2022-08-17T01:39:53.242Z,100.00
2022-08-17T01:42:52.168Z,100.00
2022-08-17T01:45:34.221Z,100.00
2022-08-17T01:48:07.134Z,100.00
2022-08-17T01:50:41.993Z,100.00
2022-08-17T01:53:22.203Z,100.00
2022-08-17T01:55:58.306Z,100.00
2022-08-17T01:58:30.786Z,100.00
2022-08-17T02:01:03.345Z,100.00
2022-08-17T02:03:36.559Z,100.00
2022-08-17T02:06:27.015Z,100.00
2022-08-17T02:09:01.629Z,100.00
2022-08-17T02:11:20.514Z,100.00
2022-08-17T02:14:02.449Z,100.00
2022-08-17T02:16:29.659Z,100.00
2022-08-17T02:19:03.833Z,100.00
2022-08-17T02:21:37.812Z,100.00
2022-08-17T02:24:13.423Z,100.00
2022-08-17T02:26:47.063Z,100.00
2022-08-17T02:29:20.695Z,100.00
2022-08-17T02:31:53.215Z,100.00
2022-08-17T02:34:27.709Z,100.00
2022-08-17T02:37:00.119Z,100.00
2022-08-17T02:39:32.866Z,100.00
2022-08-17T02:42:06.688Z,100.00
2022-08-17T02:44:40.262Z,100.00
2022-08-17T02:47:13.971Z,100.00
2022-08-17T02:49:55.373Z,100.00
2022-08-17T02:52:43.038Z,100.00
2022-08-17T02:54:56.242Z,100.00
2022-08-17T02:57:28.783Z,100.00
2022-08-17T03:00:01.159Z,100.00
2022-08-17T03:02:40.598Z,100.00
2022-08-17T03:05:14.835Z,100.00
2022-08-17T03:07:47.572Z,100.00
2022-08-17T03:10:22.982Z,100.00
2022-08-17T03:12:55.832Z,100.00
2022-08-17T03:15:31.594Z,100.00
2022-08-17T03:18:05.489Z,100.00
2022-08-17T03:20:39.638Z,100.00
2022-08-17T03:23:12.037Z,100.00
2022-08-17T03:25:46.140Z,100.00
2022-08-17T03:28:18.597Z,100.00
2022-08-17T03:30:51.702Z,100.00
2022-08-17T03:33:24.350Z,100.00
2022-08-17T03:35:56.893Z,100.00
2022-08-17T03:38:39.230Z,100.00
2022-08-17T03:41:06.800Z,100.00
2022-08-17T03:43:38.551Z,100.00
2022-08-17T03:46:35.047Z,100.00
2022-08-17T03:49:22.298Z,100.00
2022-08-17T03:52:14.196Z,100.00
2022-08-17T03:55:04.605Z,100.00
2022-08-17T03:57:37.248Z,100.00
2022-08-17T04:00:10.934Z,100.00
2022-08-17T04:02:46.675Z,100.00
2022-08-17T04:05:19.338Z,100.00
2022-08-17T04:07:53.471Z,100.00
2022-08-17T04:10:27.870Z,100.00
2022-08-17T04:13:02.620Z,100.00
2022-08-17T04:15:35.688Z,100.00
2022-08-17T04:18:10.919Z,100.00
2022-08-17T04:20:42.853Z,100.00
2022-08-17T04:23:18.983Z,100.00
2022-08-17T04:25:53.380Z,100.00
2022-08-17T04:28:26.192Z,100.00
2022-08-17T04:30:59.147Z,100.00
2022-08-17T04:33:31.716Z,100.00
2022-08-17T04:36:05.617Z,99.63
2022-08-17T04:38:41.403Z,99.30
2022-08-17T04:41:32.633Z,98.56
2022-08-17T04:44:06.811Z,97.83
2022-08-17T04:46:39.458Z,96.52
2022-08-17T04:49:14.936Z,95.25
2022-08-17T04:51:56.825Z,94.18
2022-08-17T04:54:23.476Z,93.11
2022-08-17T04:56:56.869Z,92.38
2022-08-17T04:59:30.478Z,92.13
2022-08-17T05:02:02.876Z,91.99
2022-08-17T05:04:35.618Z,91.51
2022-08-17T05:07:08.096Z,90.46
2022-08-17T05:09:41.094Z,89.98
2022-08-17T05:12:14.231Z,88.59
2022-08-17T05:14:46.796Z,87.26
2022-08-17T05:17:19.438Z,86.61
2022-08-17T05:19:52.174Z,85.54
2022-08-17T05:22:25.714Z,84.62
2022-08-17T05:24:59.320Z,84.31
2022-08-17T05:27:35.943Z,83.65
2022-08-17T05:30:09.884Z,82.80
2022-08-17T05:32:55.715Z,82.45
2022-08-17T05:35:30.093Z,81.90
2022-08-17T05:38:02.440Z,81.86
2022-08-17T05:40:36.549Z,82.47
2022-08-17T05:43:18.260Z,81.82
2022-08-17T05:46:22.333Z,80.38
2022-08-17T05:49:10.061Z,79.24
2022-08-17T05:52:20.032Z,78.90
2022-08-17T05:55:16.727Z,78.25
2022-08-17T06:01:22.255Z,76.66
2022-08-17T06:04:05.327Z,75.67
2022-08-17T06:06:44.985Z,75.03
2022-08-17T06:09:34.415Z,74.18
2022-08-17T06:12:36.231Z,73.50
2022-08-17T06:15:34.087Z,72.63
2022-08-17T06:18:10.069Z,71.49
2022-08-17T06:20:50.423Z,70.81
2022-08-17T06:23:44.244Z,70.10
2022-08-17T06:26:30.284Z,70.58
2022-08-17T06:29:20.322Z,68.48
2022-08-17T06:31:52.779Z,67.05
2022-08-17T06:34:25.285Z,67.08
2022-08-17T06:37:17.395Z,66.20
2022-08-17T06:40:17.078Z,65.72
2022-08-17T06:43:14.002Z,64.87
2022-08-17T06:46:11.707Z,62.89
2022-08-17T06:49:27.109Z,62.08
2022-08-17T06:52:45.457Z,62.10
2022-08-17T06:55:07.335Z,61.54
2022-08-17T06:57:47.804Z,61.62
2022-08-17T07:00:25.481Z,60.80
2022-08-17T07:03:23.806Z,60.04
2022-08-17T07:05:59.747Z,59.03
2022-08-17T07:09:03.969Z,59.75
2022-08-17T07:12:04.679Z,60.12
2022-08-17T07:14:58.309Z,59.27
2022-08-17T07:17:47.484Z,58.84
2022-08-17T07:20:13.027Z,57.78
2022-08-17T07:23:12.447Z,57.24
2022-08-17T07:25:44.965Z,57.07
2022-08-17T07:28:23.219Z,56.75
2022-08-17T07:30:56.350Z,55.86
2022-08-17T07:33:32.411Z,55.15
2022-08-17T07:36:06.999Z,54.78
2022-08-17T07:38:41.060Z,56.19
2022-08-17T07:41:13.551Z,54.64
2022-08-17T07:43:52.322Z,53.67
2022-08-17T07:47:09.035Z,53.46
2022-08-17T07:49:46.435Z,53.47
2022-08-17T07:52:52.604Z,54.12
2022-08-17T07:55:32.977Z,55.32
2022-08-17T07:58:05.804Z,54.59
2022-08-17T08:00:38.489Z,53.75
2022-08-17T08:03:31.467Z,52.15
2022-08-17T08:06:05.598Z,52.69
2022-08-17T08:08:43.669Z,52.53
2022-08-17T08:11:19.034Z,51.86
2022-08-17T08:13:51.746Z,52.05
2022-08-17T08:16:32.150Z,51.14
2022-08-17T08:19:04.562Z,51.12
2022-08-17T08:21:50.634Z,50.75
2022-08-17T08:25:09.533Z,49.32
2022-08-17T08:28:11.582Z,50.55
2022-08-17T08:30:48.729Z,48.44
2022-08-17T08:33:46.809Z,49.16
2022-08-17T08:37:14.574Z,47.93
2022-08-17T08:39:35.759Z,47.60
2022-08-17T08:42:16.555Z,47.33
2022-08-17T08:45:03.534Z,47.76
2022-08-17T08:47:58.371Z,47.10
2022-08-17T08:51:05.521Z,47.13
2022-08-17T08:54:11.789Z,48.03
2022-08-17T08:57:22.137Z,47.23
2022-08-17T08:59:58.592Z,47.85
2022-08-17T09:03:51.222Z,48.59
2022-08-17T09:06:06.928Z,48.64
2022-08-17T09:08:56.105Z,48.18
2022-08-17T09:12:02.254Z,48.26
2022-08-17T09:14:49.225Z,47.82
2022-08-17T09:17:25.521Z,49.04
2022-08-17T09:20:27.472Z,49.10
2022-08-17T09:22:54.611Z,49.49
2022-08-17T09:25:31.771Z,49.72
2022-08-17T09:28:08.600Z,49.11
2022-08-17T09:30:49.052Z,49.61
2022-08-17T09:33:28.117Z,48.65
2022-08-17T09:36:22.405Z,48.97
2022-08-17T09:39:18.526Z,49.40
2022-08-17T09:42:18.256Z,50.78
2022-08-17T09:45:04.522Z,51.17
2022-08-17T09:47:58.655Z,51.55
2022-08-17T09:51:05.300Z,50.52
2022-08-17T09:53:31.687Z,50.83
2022-08-17T09:56:31.385Z,51.30
2022-08-17T09:59:38.427Z,50.11
2022-08-17T10:02:23.187Z,49.82
2022-08-17T10:05:21.980Z,47.92
2022-08-17T10:08:07.542Z,45.11
2022-08-17T10:10:52.413Z,43.41
2022-08-17T10:13:53.211Z,43.60
2022-08-17T10:16:44.360Z,42.61
2022-08-17T10:19:44.081Z,43.33
2022-08-17T10:22:58.023Z,41.70
2022-08-17T10:25:55.182Z,41.08
2022-08-17T10:28:47.937Z,40.40
2022-08-17T10:31:41.010Z,40.50
2022-08-17T10:34:24.786Z,39.77
2022-08-17T10:37:38.682Z,39.88
2022-08-17T10:40:46.055Z,41.05
2022-08-17T10:43:38.673Z,40.47
2022-08-17T10:46:50.627Z,40.15
2022-08-17T10:49:36.772Z,39.97
2022-08-17T10:52:33.194Z,40.87
2022-08-17T10:55:18.881Z,41.49
2022-08-17T10:57:53.526Z,41.15
2022-08-17T11:00:46.556Z,40.63
2022-08-17T11:03:22.267Z,40.48
2022-08-17T11:06:14.333Z,40.83
2022-08-17T11:09:29.009Z,40.46
2022-08-17T11:12:21.459Z,41.39
2022-08-17T11:15:04.740Z,41.45
2022-08-17T11:17:52.209Z,40.80
2022-08-17T11:20:53.495Z,41.04
2022-08-17T11:24:06.012Z,39.73
2022-08-17T11:26:42.052Z,39.29
2022-08-17T11:29:24.921Z,38.64
2022-08-17T11:32:11.138Z,38.12
2022-08-17T11:34:44.755Z,38.25
2022-08-17T11:37:20.452Z,38.78
2022-08-17T11:40:14.562Z,39.21
2022-08-17T11:43:07.811Z,39.38
2022-08-17T11:46:13.944Z,39.14
2022-08-17T11:49:15.073Z,40.62
2022-08-17T11:52:07.988Z,38.57
2022-08-17T11:54:48.586Z,39.00
2022-08-17T11:57:33.624Z,38.23
2022-08-17T12:00:11.552Z,38.01
2022-08-17T12:02:48.982Z,38.41
2022-08-17T12:05:31.005Z,37.95
2022-08-17T12:08:20.997Z,37.42
2022-08-17T12:11:19.099Z,38.95
2022-08-17T12:13:57.792Z,38.83
2022-08-17T12:16:31.632Z,38.06
2022-08-17T12:19:03.864Z,39.11
2022-08-17T12:21:57.922Z,38.20
2022-08-17T12:24:50.683Z,38.52
2022-08-17T12:27:43.197Z,39.53
2022-08-17T12:30:29.899Z,40.25
2022-08-17T12:33:02.991Z,41.20
2022-08-17T12:35:39.080Z,40.88
2022-08-17T12:38:26.769Z,40.29
2022-08-17T12:40:58.782Z,39.29
2022-08-17T12:43:33.800Z,38.79
2022-08-17T12:46:13.020Z,40.45
2022-08-17T12:48:58.720Z,41.49
2022-08-17T12:51:17.444Z,41.00
2022-08-17T12:53:55.819Z,40.88
2022-08-17T12:56:30.049Z,41.19
2022-08-17T12:59:04.745Z,41.64
2022-08-17T13:01:43.292Z,42.24
2022-08-17T13:04:16.378Z,42.25
2022-08-17T13:06:52.742Z,42.55
2022-08-17T13:09:30.957Z,41.63
2022-08-17T13:12:06.011Z,42.29
2022-08-17T13:14:43.200Z,41.71
2022-08-17T13:17:15.645Z,42.19
2022-08-17T13:19:50.685Z,42.08
2022-08-17T13:22:26.744Z,41.83
2022-08-17T13:25:04.673Z,42.28
2022-08-17T13:27:38.495Z,42.81
2022-08-17T13:30:16.176Z,42.63
2022-08-17T13:32:48.842Z,43.22
2022-08-17T13:35:47.108Z,43.24
2022-08-17T13:38:45.094Z,43.64
2022-08-17T13:41:39.040Z,44.85
2022-08-17T13:44:32.979Z,44.43
2022-08-17T13:47:09.421Z,44.71
2022-08-17T13:49:48.772Z,45.09
2022-08-17T13:52:38.863Z,44.97
2022-08-17T13:55:21.378Z,44.84
2022-08-17T13:58:03.682Z,45.74
2022-08-17T14:00:34.261Z,45.92
2022-08-17T14:03:07.692Z,46.71
2022-08-17T14:05:41.214Z,47.43
2022-08-17T14:08:14.894Z,47.57
2022-08-17T14:10:52.537Z,47.65
2022-08-17T14:13:25.988Z,47.81
2022-08-17T14:15:59.599Z,47.89
2022-08-17T14:18:55.992Z,48.21
2022-08-17T14:21:08.561Z,48.50
2022-08-17T14:23:43.593Z,49.05
2022-08-17T14:26:17.894Z,49.32
2022-08-17T14:28:54.606Z,49.86
2022-08-17T14:31:25.568Z,50.07
2022-08-17T14:33:59.218Z,50.63
2022-08-17T14:36:32.279Z,50.11
2022-08-17T14:39:05.439Z,50.30
2022-08-17T14:41:38.488Z,50.45
2022-08-17T14:44:13.621Z,49.77
2022-08-17T14:46:48.075Z,49.56
2022-08-17T14:49:20.862Z,49.59
2022-08-17T14:51:54.168Z,49.74
2022-08-17T14:54:34.214Z,49.73
2022-08-17T14:57:24.678Z,49.70
2022-08-17T14:59:36.111Z,49.91
2022-08-17T15:02:08.710Z,50.05
2022-08-17T15:04:45.541Z,50.77
2022-08-17T15:07:21.766Z,51.17
2022-08-17T15:09:57.001Z,50.90
2022-08-17T15:12:34.000Z,50.32
2022-08-17T15:15:07.354Z,50.19
2022-08-17T15:17:43.865Z,50.11
2022-08-17T15:20:20.918Z,50.70
2022-08-17T15:22:57.573Z,50.53
2022-08-17T15:25:32.107Z,50.32
2022-08-17T15:28:04.881Z,50.85
2022-08-17T15:30:38.531Z,50.92
2022-08-17T15:33:28.371Z,51.09
2022-08-17T15:36:04.968Z,51.29
2022-08-17T15:38:39.476Z,51.42
2022-08-17T15:41:16.617Z,51.69
2022-08-17T15:43:50.373Z,52.05
2022-08-17T15:46:25.839Z,52.47
2022-08-17T15:48:59.260Z,52.68
2022-08-17T15:51:35.421Z,52.38
2022-08-17T15:54:17.099Z,52.72
2022-08-17T15:56:48.397Z,52.58
2022-08-17T15:59:21.106Z,52.69
2022-08-17T16:03:14.149Z,53.26
2022-08-17T16:04:31.802Z,53.59
2022-08-17T16:07:05.946Z,54.04
2022-08-17T16:09:39.189Z,54.52
2022-08-17T16:12:17.780Z,54.82
2022-08-17T16:14:51.879Z,55.28
2022-08-17T16:17:39.883Z,55.84
2022-08-17T16:19:59.249Z,56.40
2022-08-17T16:22:44.974Z,56.61
2022-08-17T16:25:21.515Z,56.71
2022-08-17T16:27:53.955Z,56.98
2022-08-17T16:30:29.589Z,57.21
2022-08-17T16:33:03.218Z,57.27
2022-08-17T16:35:36.306Z,57.27
2022-08-17T16:38:09.822Z,57.52
2022-08-17T16:40:42.907Z,57.62
2022-08-17T16:43:15.472Z,57.59
2022-08-17T16:45:51.951Z,57.62
2022-08-17T16:48:23.461Z,57.81
2022-08-17T16:51:02.871Z,57.91
2022-08-17T16:53:32.000Z,57.81
2022-08-17T16:56:05.965Z,57.82
2022-08-17T16:58:40.319Z,57.97
2022-08-17T17:01:13.010Z,58.06
2022-08-17T17:03:45.924Z,58.08
2022-08-17T17:06:55.319Z,58.26
2022-08-17T17:09:31.813Z,58.23
2022-08-17T17:12:09.806Z,58.71
2022-08-17T17:14:45.926Z,58.74
2022-08-17T17:17:29.096Z,58.79
2022-08-17T17:20:23.117Z,59.14
2022-08-17T17:23:12.749Z,59.49
2022-08-17T17:25:56.124Z,59.83
2022-08-17T17:28:54.458Z,60.12
2022-08-17T17:32:09.234Z,60.36
2022-08-17T17:34:42.443Z,60.78
2022-08-17T17:37:18.349Z,60.93
2022-08-17T17:40:17.369Z,61.11
2022-08-17T17:42:52.531Z,61.17
2022-08-17T17:45:37.261Z,61.30
2022-08-17T17:48:10.098Z,61.53
2022-08-17T17:52:02.846Z,61.71
2022-08-17T17:54:06.159Z,62.04
2022-08-17T17:56:55.799Z,62.37
2022-08-17T17:59:51.474Z,62.44
2022-08-17T18:02:51.238Z,62.91
2022-08-17T18:05:49.465Z,63.28
2022-08-17T18:09:02.210Z,63.83
2022-08-17T18:11:58.997Z,63.73
2022-08-17T18:14:58.743Z,64.31
2022-08-17T18:17:31.391Z,66.00
2022-08-17T18:20:07.246Z,67.25
2022-08-17T18:22:40.631Z,66.99
2022-08-17T18:25:40.003Z,67.19
2022-08-17T18:28:17.733Z,67.63
2022-08-17T18:31:15.005Z,68.21
2022-08-17T18:33:50.521Z,68.29
2022-08-17T18:36:36.585Z,68.41
2022-08-17T18:39:18.880Z,68.28
2022-08-17T18:41:53.444Z,68.38
2022-08-17T18:44:38.144Z,68.74
2022-08-17T18:47:18.243Z,69.50
2022-08-17T18:49:58.242Z,70.81
2022-08-17T18:52:33.598Z,69.96
2022-08-17T18:55:15.978Z,70.01
2022-08-17T18:57:57.925Z,69.92
2022-08-17T19:00:41.532Z,70.39
2022-08-17T19:03:26.162Z,70.67
2022-08-17T19:06:18.081Z,70.91
2022-08-17T19:08:50.697Z,71.23
2022-08-17T19:11:31.125Z,71.54
2022-08-17T19:14:08.918Z,72.19
2022-08-17T19:17:07.281Z,72.58
2022-08-17T19:20:05.715Z,72.42
2022-08-17T19:23:09.592Z,72.43
2022-08-17T19:25:53.443Z,72.60
2022-08-17T19:28:41.041Z,72.82
2022-08-17T19:31:24.708Z,72.75
2022-08-17T19:33:57.434Z,72.97
2022-08-17T19:36:55.423Z,73.39
2022-08-17T19:39:48.222Z,73.39
2022-08-17T19:42:42.190Z,73.45
2022-08-17T19:45:37.955Z,73.78
2022-08-17T19:48:28.256Z,73.53
2022-08-17T19:51:05.578Z,74.05
2022-08-17T19:54:09.549Z,74.30
2022-08-17T19:57:08.420Z,74.77
2022-08-17T20:00:04.610Z,74.77
2022-08-17T20:02:45.105Z,74.99
2022-08-17T20:06:08.597Z,75.06
2022-08-17T20:08:17.880Z,75.66
2022-08-17T20:10:57.632Z,76.13
2022-08-17T20:13:43.170Z,76.62
2022-08-17T20:16:17.627Z,76.67
2022-08-17T20:19:10.371Z,77.17
2022-08-17T20:22:02.530Z,77.50
2022-08-17T20:24:47.280Z,77.93
2022-08-17T20:27:31.466Z,78.04
2022-08-17T20:30:34.808Z,77.92
2022-08-17T20:33:17.119Z,79.10
2022-08-17T20:36:23.838Z,79.10
2022-08-17T20:38:58.517Z,79.29
2022-08-17T20:41:31.705Z,79.94
2022-08-17T20:44:06.243Z,80.43
2022-08-17T20:46:43.564Z,80.43
2022-08-17T20:49:47.909Z,80.71
2022-08-17T20:52:55.756Z,81.22
2022-08-17T20:55:52.394Z,81.37
2022-08-17T20:58:33.853Z,81.41
2022-08-17T21:01:18.143Z,81.78
2022-08-17T21:03:52.060Z,82.34
2022-08-17T21:06:25.595Z,82.06
2022-08-17T21:09:17.085Z,82.00
2022-08-17T21:12:05.619Z,82.00
2022-08-17T21:15:01.248Z,81.90
2022-08-17T21:17:45.706Z,81.76
2022-08-17T21:20:48.914Z,81.63
2022-08-17T21:23:38.396Z,81.59
2022-08-17T21:26:50.590Z,81.83
2022-08-17T21:29:31.020Z,81.66
2022-08-17T21:32:06.945Z,81.77
2022-08-17T21:34:45.362Z,81.79
2022-08-17T21:37:29.879Z,81.83
2022-08-17T21:40:13.965Z,82.16
2022-08-17T21:43:12.134Z,82.49
2022-08-17T21:45:44.998Z,82.48
2022-08-17T21:48:27.550Z,82.82
2022-08-17T21:51:16.670Z,83.15
2022-08-17T21:53:58.771Z,83.33
2022-08-17T21:56:55.099Z,83.52
2022-08-17T21:59:40.293Z,83.89
2022-08-17T22:02:23.043Z,84.42
2022-08-17T22:05:05.206Z,84.57
2022-08-17T22:07:45.382Z,84.97
2022-08-17T22:10:33.019Z,85.23
2022-08-17T22:13:24.364Z,85.33
2022-08-17T22:16:15.585Z,85.78
2022-08-17T22:18:53.706Z,86.08
2022-08-17T22:21:26.681Z,86.04
2022-08-17T22:24:09.411Z,86.45
2022-08-17T22:27:20.112Z,86.28
2022-08-17T22:29:58.084Z,85.99
2022-08-17T22:32:44.226Z,86.50
2022-08-17T22:35:37.199Z,86.27
2022-08-17T22:38:25.734Z,85.98
2022-08-17T22:41:17.416Z,85.60
2022-08-17T22:43:50.941Z,85.54
2022-08-17T22:46:25.023Z,86.27
2022-08-17T22:48:59.877Z,86.38
2022-08-17T22:51:32.662Z,86.48
2022-08-17T22:54:29.508Z,86.57
2022-08-17T22:57:22.468Z,86.89
2022-08-17T22:59:56.396Z,87.30
2022-08-17T23:02:34.739Z,87.23
2022-08-17T23:05:19.042Z,87.17
2022-08-17T23:07:53.527Z,87.66
2022-08-17T23:10:25.488Z,87.42
2022-08-17T23:13:21.534Z,87.61
2022-08-17T23:15:54.323Z,88.04
2022-08-17T23:18:27.837Z,88.09
2022-08-17T23:21:00.554Z,88.30
2022-08-17T23:23:36.076Z,88.22
2022-08-17T23:26:10.721Z,88.47
2022-08-17T23:28:44.177Z,88.39
2022-08-17T23:31:19.038Z,88.36
2022-08-17T23:33:53.034Z,88.33
2022-08-17T23:36:27.329Z,88.79
2022-08-17T23:39:00.504Z,88.90
2022-08-17T23:41:36.464Z,88.42
2022-08-17T23:44:10.093Z,88.20
2022-08-17T23:46:44.494Z,88.04
2022-08-17T23:49:17.176Z,88.01
2022-08-17T23:51:50.185Z,87.85
2022-08-17T23:54:40.191Z,87.65
2022-08-17T23:57:14.069Z,87.76
2022-08-17T23:59:47.054Z,87.89
